North Salt Lake
Center St & Main St, North Salt Lake
Last Weather Update:02/23/2012 6:00:00 PM
Date
ETo
ETc
Rain
Irrigation
Req
Temp
Max
Temp
Min
Temp
Avg
Avg RH
Avg Wind
Avg Solar
inches
inches
incehs
inches
F
F
F
%
%
watts/m2
01/01/2012 0.04" 0.00" 0.00" 0.00" 41.6° 20.0° 29.1° 60.8% 1.8 MPH 95.7w/m2
01/02/2012 0.03" 0.00" 0.00" 0.00" 44.0° 21.6° 30.6° 79.1% 1.7 MPH 92.4w/m2
01/03/2012 0.04" 0.00" 0.00" 0.00" 45.4° 25.0° 34.0° 71.9% 2.1 MPH 94.9w/m2
01/04/2012 0.03" 0.00" 0.00" 0.00" 47.2° 24.3° 33.1° 65.4% 1.5 MPH 88.5w/m2
01/05/2012 0.04" 0.00" 0.00" 0.00" 49.6° 24.5° 34.9° 69.1% 2.2 MPH 90.2w/m2
01/06/2012 0.03" 0.00" 0.00" 0.00" 43.3° 23.9° 33.3° 74.1% 1.7 MPH 94.3w/m2
01/07/2012 0.01" 0.00" 0.34" -0.27" 35.8° 17.5° 30.0° 93.0% 0.9 MPH 51.5w/m2
01/08/2012 0.03" 0.00" 0.00" 0.00" 32.5° 15.0° 23.8° 88.0% 0.8 MPH 93.3w/m2
01/09/2012 0.03" 0.00" 0.00" 0.00" 36.2° 19.3° 26.6° 91.7% 0.6 MPH 95.8w/m2
01/10/2012 0.03" 0.00" 0.01" -0.01" 37.2° 19.5° 28.3° 87.9% 1.3 MPH 89.4w/m2
01/11/2012 0.03" 0.00" 0.00" 0.00" 34.4° 18.1° 26.0° 64.7% 1.2 MPH 106.0w/m2
01/12/2012 0.03" 0.00" 0.00" 0.00" 32.3° 13.0° 21.4° 72.4% 1.4 MPH 107.7w/m2
01/13/2012 0.03" 0.00" 0.00" 0.00" 36.9° 14.4° 25.0° 66.9% 1.8 MPH 104.7w/m2
01/14/2012 0.04" 0.00" 0.00" 0.00" 49.7° 18.9° 29.3° 37.8% 2.0 MPH 105.6w/m2
01/15/2012 0.12" 0.00" 0.00" 0.00" 52.5° 25.4° 47.2° 21.6% 9.9 MPH 43.9w/m2
01/16/2012 0.03" 0.00" 0.03" -0.02" 46.5° 15.3° 24.0° 61.8% 3.7 MPH 65.4w/m2
01/17/2012 0.04" 0.00" 0.00" 0.00" 35.2° 11.0° 22.5° 59.6% 3.6 MPH 113.2w/m2
01/18/2012 0.05" 0.00" 0.50" -0.40" 44.4° 25.9° 38.0° 76.3% 6.3 MPH 38.8w/m2
01/19/2012 0.05" 0.00" 0.07" -0.06" 53.4° 40.3° 45.9° 63.3% 3.9 MPH 26.3w/m2
01/20/2012 0.05" 0.00" 0.03" -0.02" 54.5° 38.7° 46.8° 33.1% 3.2 MPH 56.3w/m2
01/21/2012 0.03" 0.00" 1.19" -0.95" 55.0° 31.9° 42.0° 77.1% 7.2 MPH 5.4w/m2
01/22/2012 0.05" 0.00" 0.24" -0.19" 40.7° 26.4° 33.7° 58.8% 2.8 MPH 115.5w/m2
01/23/2012 0.03" 0.00" 0.01" -0.01" 42.4° 29.7° 35.2° 98.7% 3.1 MPH 46.0w/m2
01/24/2012 0.03" 0.00" 0.35" -0.28" 39.3° 26.5° 31.4° 81.0% 0.8 MPH 111.9w/m2
01/25/2012 0.04" 0.00" 0.00" 0.00" 47.2° 30.3° 36.3° 88.0% 2.1 MPH 96.3w/m2
01/26/2012 0.03" 0.00" 0.11" -0.09" 48.7° 30.3° 39.2° 89.4% 2.7 MPH 29.0w/m2
01/27/2012 0.04" 0.00" 0.01" -0.01" 37.2° 21.5° 30.6° 80.9% 2.6 MPH 127.3w/m2
01/28/2012 0.04" 0.00" 0.00" 0.00" 38.9° 18.2° 27.8° 66.1% 1.9 MPH 125.3w/m2
01/29/2012 0.04" 0.00" 0.00" 0.00" 44.0° 22.1° 30.9° 89.0% 2.4 MPH 104.5w/m2
01/30/2012 0.03" 0.00" 0.00" 0.00" 43.9° 24.0° 32.0° 82.5% 2.4 MPH 80.2w/m2
01/31/2012 0.04" 0.00" 0.00" 0.00" 45.0° 23.4° 32.2° 80.0% 2.1 MPH 116.0w/m2
Totals: 1.17" 0.00" 2.89" -2.31" 55.0° 11.0° 32.3° 71.9% 2.6 MPH 84.2w/m2